sensor_id;sensor_type;location;lat;lon;timestamp;pressure;altitude;pressure_sealevel;temperature;humidity
15880;BME280;61999;51.514;14.614;2023-01-19T00:01:42;98711.03;;;-5.58;70.10
15880;BME280;61999;51.514;14.614;2023-01-19T00:04:10;98720.25;;;-5.53;70.83
15880;BME280;61999;51.514;14.614;2023-01-19T00:06:39;98727.34;;;-4.89;70.00
15880;BME280;61999;51.514;14.614;2023-01-19T00:09:07;98733.41;;;-5.13;69.41
15880;BME280;61999;51.514;14.614;2023-01-19T00:11:36;98732.03;;;-5.47;69.10
15880;BME280;61999;51.514;14.614;2023-01-19T00:14:04;98736.00;;;-5.38;69.84
15880;BME280;61999;51.514;14.614;2023-01-19T00:16:32;98744.63;;;-4.92;68.15
15880;BME280;61999;51.514;14.614;2023-01-19T00:19:00;98745.19;;;-5.08;67.82
15880;BME280;61999;51.514;14.614;2023-01-19T00:21:28;98748.94;;;-5.16;68.38
15880;BME280;61999;51.514;14.614;2023-01-19T00:23:57;98756.22;;;-5.54;68.48
15880;BME280;61999;51.514;14.614;2023-01-19T00:26:25;98754.72;;;-5.85;70.65
15880;BME280;61999;51.514;14.614;2023-01-19T00:28:53;98758.56;;;-5.98;72.02
15880;BME280;61999;51.514;14.614;2023-01-19T00:31:22;98764.53;;;-5.22;70.68
15880;BME280;61999;51.514;14.614;2023-01-19T00:33:50;98765.28;;;-4.72;68.65
15880;BME280;61999;51.514;14.614;2023-01-19T00:36:18;98773.50;;;-4.18;67.36
15880;BME280;61999;51.514;14.614;2023-01-19T00:38:46;98777.25;;;-4.49;66.71
15880;BME280;61999;51.514;14.614;2023-01-19T00:41:16;98777.00;;;-4.19;66.31
15880;BME280;61999;51.514;14.614;2023-01-19T00:43:45;98783.19;;;-5.17;67.16
15880;BME280;61999;51.514;14.614;2023-01-19T00:46:12;98785.53;;;-5.35;68.69
15880;BME280;61999;51.514;14.614;2023-01-19T00:48:40;98794.28;;;-4.92;67.93
15880;BME280;61999;51.514;14.614;2023-01-19T00:51:08;98798.75;;;-4.50;67.15
15880;BME280;61999;51.514;14.614;2023-01-19T00:53:36;98806.38;;;-4.03;65.41
15880;BME280;61999;51.514;14.614;2023-01-19T00:56:05;98810.31;;;-3.94;64.52
15880;BME280;61999;51.514;14.614;2023-01-19T00:58:34;98816.22;;;-3.91;63.78
15880;BME280;61999;51.514;14.614;2023-01-19T01:01:03;98822.06;;;-3.87;63.31
15880;BME280;61999;51.514;14.614;2023-01-19T01:03:32;98819.97;;;-5.15;65.17
15880;BME280;61999;51.514;14.614;2023-01-19T01:06:01;98817.94;;;-6.10;69.05
15880;BME280;61999;51.514;14.614;2023-01-19T01:08:29;98818.75;;;-6.66;72.00
15880;BME280;61999;51.514;14.614;2023-01-19T01:10:57;98824.91;;;-7.70;76.17
15880;BME280;61999;51.514;14.614;2023-01-19T01:13:26;98828.53;;;-7.12;76.36
15880;BME280;61999;51.514;14.614;2023-01-19T01:15:56;98825.91;;;-8.13;78.86
15880;BME280;61999;51.514;14.614;2023-01-19T01:18:25;98827.06;;;-8.26;78.88
15880;BME280;61999;51.514;14.614;2023-01-19T01:21:00;98825.56;;;-7.98;78.33
15880;BME280;61999;51.514;14.614;2023-01-19T01:23:28;98826.59;;;-8.05;80.01
15880;BME280;61999;51.514;14.614;2023-01-19T01:25:56;98831.25;;;-8.22;79.25
15880;BME280;61999;51.514;14.614;2023-01-19T01:28:24;98819.00;;;-8.09;79.31
15880;BME280;61999;51.514;14.614;2023-01-19T01:30:53;98820.28;;;-7.91;77.93
15880;BME280;61999;51.514;14.614;2023-01-19T01:33:23;98819.47;;;-7.23;77.18
15880;BME280;61999;51.514;14.614;2023-01-19T01:35:51;98816.75;;;-6.56;74.72
15880;BME280;61999;51.514;14.614;2023-01-19T01:38:19;98820.88;;;-6.23;71.50
15880;BME280;61999;51.514;14.614;2023-01-19T01:40:47;98815.19;;;-6.04;70.31
15880;BME280;61999;51.514;14.614;2023-01-19T01:43:18;98827.94;;;-6.03;69.18
15880;BME280;61999;51.514;14.614;2023-01-19T01:45:46;98830.00;;;-5.86;68.06
15880;BME280;61999;51.514;14.614;2023-01-19T01:48:20;98837.75;;;-6.16;67.30
15880;BME280;61999;51.514;14.614;2023-01-19T01:50:58;98836.94;;;-6.16;67.66
15880;BME280;61999;51.514;14.614;2023-01-19T01:53:48;98838.19;;;-7.90;72.96
15880;BME280;61999;51.514;14.614;2023-01-19T01:56:25;98834.41;;;-7.41;72.50
15880;BME280;61999;51.514;14.614;2023-01-19T01:58:54;98834.34;;;-6.74;71.13
15880;BME280;61999;51.514;14.614;2023-01-19T02:01:22;98841.78;;;-7.63;71.11
15880;BME280;61999;51.514;14.614;2023-01-19T02:04:08;98842.72;;;-8.03;72.78
15880;BME280;61999;51.514;14.614;2023-01-19T02:06:38;98846.50;;;-8.19;73.70
15880;BME280;61999;51.514;14.614;2023-01-19T02:09:26;98843.59;;;-8.02;73.93
15880;BME280;61999;51.514;14.614;2023-01-19T02:12:14;98842.06;;;-8.50;74.71
15880;BME280;61999;51.514;14.614;2023-01-19T02:15:00;98844.56;;;-7.72;72.73
15880;BME280;61999;51.514;14.614;2023-01-19T02:17:28;98850.34;;;-8.00;72.35
15880;BME280;61999;51.514;14.614;2023-01-19T02:19:56;98851.41;;;-8.10;72.64
15880;BME280;61999;51.514;14.614;2023-01-19T02:22:34;98847.41;;;-7.84;72.36
15880;BME280;61999;51.514;14.614;2023-01-19T02:25:08;98854.06;;;-8.55;73.91
15880;BME280;61999;51.514;14.614;2023-01-19T02:27:36;98853.38;;;-8.21;73.19
15880;BME280;61999;51.514;14.614;2023-01-19T02:30:08;98857.78;;;-8.28;72.55
15880;BME280;61999;51.514;14.614;2023-01-19T02:32:36;98857.72;;;-8.65;74.16
15880;BME280;61999;51.514;14.614;2023-01-19T02:35:05;98848.91;;;-8.52;73.79
15880;BME280;61999;51.514;14.614;2023-01-19T02:37:38;98852.53;;;-8.62;73.38
15880;BME280;61999;51.514;14.614;2023-01-19T02:40:12;98848.41;;;-8.29;72.83
15880;BME280;61999;51.514;14.614;2023-01-19T02:42:45;98847.28;;;-8.56;73.44
15880;BME280;61999;51.514;14.614;2023-01-19T02:45:21;98850.94;;;-8.27;73.04
15880;BME280;61999;51.514;14.614;2023-01-19T02:47:51;98854.84;;;-8.11;71.26
15880;BME280;61999;51.514;14.614;2023-01-19T02:50:40;98863.47;;;-8.55;72.50
15880;BME280;61999;51.514;14.614;2023-01-19T02:53:50;98866.91;;;-8.56;72.74
15880;BME280;61999;51.514;14.614;2023-01-19T02:56:43;98867.31;;;-8.36;70.96
15880;BME280;61999;51.514;14.614;2023-01-19T02:59:27;98871.97;;;-8.55;70.98
15880;BME280;61999;51.514;14.614;2023-01-19T03:02:21;98877.31;;;-9.12;73.11
15880;BME280;61999;51.514;14.614;2023-01-19T03:05:20;98880.91;;;-9.24;74.23
15880;BME280;61999;51.514;14.614;2023-01-19T03:07:59;98893.03;;;-8.89;73.79
15880;BME280;61999;51.514;14.614;2023-01-19T03:10:40;98892.69;;;-9.15;74.75
15880;BME280;61999;51.514;14.614;2023-01-19T03:13:18;98894.69;;;-8.84;73.76
15880;BME280;61999;51.514;14.614;2023-01-19T03:15:54;98900.56;;;-8.79;72.41
15880;BME280;61999;51.514;14.614;2023-01-19T03:18:26;98904.38;;;-9.02;72.78
15880;BME280;61999;51.514;14.614;2023-01-19T03:21:01;98905.06;;;-9.43;73.14
15880;BME280;61999;51.514;14.614;2023-01-19T03:23:35;98905.91;;;-9.43;74.76
15880;BME280;61999;51.514;14.614;2023-01-19T03:26:08;98911.91;;;-9.47;74.26
15880;BME280;61999;51.514;14.614;2023-01-19T03:28:41;98905.50;;;-9.72;75.77
15880;BME280;61999;51.514;14.614;2023-01-19T03:31:15;98901.75;;;-9.50;75.86
15880;BME280;61999;51.514;14.614;2023-01-19T03:33:53;98898.06;;;-9.30;74.71
15880;BME280;61999;51.514;14.614;2023-01-19T03:36:30;98903.91;;;-9.78;74.79
15880;BME280;61999;51.514;14.614;2023-01-19T03:39:01;98903.88;;;-9.76;75.36
15880;BME280;61999;51.514;14.614;2023-01-19T03:41:32;98891.66;;;-9.56;75.52
15880;BME280;61999;51.514;14.614;2023-01-19T03:44:04;98891.47;;;-8.51;72.13
15880;BME280;61999;51.514;14.614;2023-01-19T03:46:34;98891.00;;;-8.70;72.50
15880;BME280;61999;51.514;14.614;2023-01-19T03:49:02;98892.69;;;-9.15;72.09
15880;BME280;61999;51.514;14.614;2023-01-19T03:51:34;98899.94;;;-9.42;71.43
15880;BME280;61999;51.514;14.614;2023-01-19T03:54:03;98900.81;;;-8.95;72.65
15880;BME280;61999;51.514;14.614;2023-01-19T03:56:32;98907.44;;;-8.01;69.83
15880;BME280;61999;51.514;14.614;2023-01-19T03:59:00;98910.38;;;-7.41;67.79
15880;BME280;61999;51.514;14.614;2023-01-19T04:01:32;98914.72;;;-7.11;65.85
15880;BME280;61999;51.514;14.614;2023-01-19T04:04:00;98918.47;;;-6.91;64.51
15880;BME280;61999;51.514;14.614;2023-01-19T04:06:28;98920.75;;;-6.79;63.12
15880;BME280;61999;51.514;14.614;2023-01-19T04:08:57;98918.81;;;-6.71;62.49
15880;BME280;61999;51.514;14.614;2023-01-19T04:11:25;98917.75;;;-6.64;61.68
15880;BME280;61999;51.514;14.614;2023-01-19T04:13:54;98922.78;;;-6.61;60.95
15880;BME280;61999;51.514;14.614;2023-01-19T04:16:22;98915.91;;;-6.58;60.29
15880;BME280;61999;51.514;14.614;2023-01-19T04:18:51;98914.16;;;-6.56;59.52
15880;BME280;61999;51.514;14.614;2023-01-19T04:21:19;98920.06;;;-6.54;59.57
15880;BME280;61999;51.514;14.614;2023-01-19T04:23:48;98914.91;;;-6.53;58.57
15880;BME280;61999;51.514;14.614;2023-01-19T04:26:16;98912.38;;;-6.54;58.45
15880;BME280;61999;51.514;14.614;2023-01-19T04:28:44;98919.19;;;-6.53;58.32
15880;BME280;61999;51.514;14.614;2023-01-19T04:31:12;98920.91;;;-6.54;58.28
15880;BME280;61999;51.514;14.614;2023-01-19T04:33:40;98923.53;;;-6.55;58.10
15880;BME280;61999;51.514;14.614;2023-01-19T04:36:10;98922.69;;;-6.56;57.40
15880;BME280;61999;51.514;14.614;2023-01-19T04:38:38;98919.31;;;-6.58;57.31
15880;BME280;61999;51.514;14.614;2023-01-19T04:41:06;98912.53;;;-6.61;57.46
15880;BME280;61999;51.514;14.614;2023-01-19T04:43:34;98916.00;;;-6.62;56.76
15880;BME280;61999;51.514;14.614;2023-01-19T04:46:02;98913.53;;;-6.65;56.85
15880;BME280;61999;51.514;14.614;2023-01-19T04:48:30;98919.59;;;-6.69;56.74
15880;BME280;61999;51.514;14.614;2023-01-19T04:50:58;98911.13;;;-6.71;56.79
15880;BME280;61999;51.514;14.614;2023-01-19T04:53:28;98920.56;;;-6.73;56.69
15880;BME280;61999;51.514;14.614;2023-01-19T04:55:56;98922.31;;;-6.75;56.07
15880;BME280;61999;51.514;14.614;2023-01-19T04:58:25;98924.09;;;-6.77;56.17
15880;BME280;61999;51.514;14.614;2023-01-19T05:00:54;98921.56;;;-6.78;56.46
15880;BME280;61999;51.514;14.614;2023-01-19T05:03:22;98922.50;;;-6.81;56.16
15880;BME280;61999;51.514;14.614;2023-01-19T05:05:53;98925.13;;;-6.84;55.72
15880;BME280;61999;51.514;14.614;2023-01-19T05:08:21;98923.47;;;-6.85;56.02
15880;BME280;61999;51.514;14.614;2023-01-19T05:10:51;98917.53;;;-6.87;56.22
15880;BME280;61999;51.514;14.614;2023-01-19T05:13:19;98922.25;;;-7.04;56.17
15880;BME280;61999;51.514;14.614;2023-01-19T05:15:47;98917.81;;;-6.98;55.84
15880;BME280;61999;51.514;14.614;2023-01-19T05:18:16;98924.59;;;-6.97;55.93
15880;BME280;61999;51.514;14.614;2023-01-19T05:20:44;98916.97;;;-6.98;55.69
15880;BME280;61999;51.514;14.614;2023-01-19T05:23:12;98909.28;;;-6.98;55.79
15880;BME280;61999;51.514;14.614;2023-01-19T05:25:41;98914.50;;;-7.01;55.00
15880;BME280;61999;51.514;14.614;2023-01-19T05:28:11;98912.00;;;-7.04;55.13
15880;BME280;61999;51.514;14.614;2023-01-19T05:30:41;98911.19;;;-7.07;55.77
15880;BME280;61999;51.514;14.614;2023-01-19T05:33:09;98918.97;;;-7.10;55.81
15880;BME280;61999;51.514;14.614;2023-01-19T05:35:37;98917.28;;;-7.11;55.61
15880;BME280;61999;51.514;14.614;2023-01-19T05:38:05;98909.63;;;-7.12;55.71
15880;BME280;61999;51.514;14.614;2023-01-19T05:40:33;98903.69;;;-7.13;54.84
15880;BME280;61999;51.514;14.614;2023-01-19T05:43:01;98910.56;;;-7.15;55.53
15880;BME280;61999;51.514;14.614;2023-01-19T05:45:32;98911.47;;;-7.17;55.48
15880;BME280;61999;51.514;14.614;2023-01-19T05:48:01;98910.63;;;-7.18;55.12
15880;BME280;61999;51.514;14.614;2023-01-19T05:50:29;98907.25;;;-7.20;54.76
15880;BME280;61999;51.514;14.614;2023-01-19T05:52:57;98912.47;;;-7.23;54.76
15880;BME280;61999;51.514;14.614;2023-01-19T05:55:27;98915.91;;;-7.24;54.51
15880;BME280;61999;51.514;14.614;2023-01-19T05:57:55;98916.00;;;-7.27;54.86
15880;BME280;61999;51.514;14.614;2023-01-19T06:00:24;98916.78;;;-7.25;55.23
15880;BME280;61999;51.514;14.614;2023-01-19T06:02:54;98917.72;;;-7.27;55.17
15880;BME280;61999;51.514;14.614;2023-01-19T06:05:22;98917.66;;;-7.26;55.49
15880;BME280;61999;51.514;14.614;2023-01-19T06:07:51;98922.78;;;-7.26;56.08
15880;BME280;61999;51.514;14.614;2023-01-19T06:10:19;98919.34;;;-7.25;56.31
15880;BME280;61999;51.514;14.614;2023-01-19T06:12:48;98922.78;;;-7.26;55.77
15880;BME280;61999;51.514;14.614;2023-01-19T06:15:16;98931.34;;;-7.27;55.27
15880;BME280;61999;51.514;14.614;2023-01-19T06:17:44;98933.09;;;-7.29;55.32
15880;BME280;61999;51.514;14.614;2023-01-19T06:20:14;98940.81;;;-7.31;55.02
15880;BME280;61999;51.514;14.614;2023-01-19T06:22:42;98946.84;;;-7.33;54.78
15880;BME280;61999;51.514;14.614;2023-01-19T06:25:10;98944.31;;;-7.35;54.78
15880;BME280;61999;51.514;14.614;2023-01-19T06:27:43;98942.72;;;-7.39;55.10
15880;BME280;61999;51.514;14.614;2023-01-19T06:30:12;98953.88;;;-7.41;55.00
15880;BME280;61999;51.514;14.614;2023-01-19T06:32:41;98952.19;;;-7.42;54.39
15880;BME280;61999;51.514;14.614;2023-01-19T06:35:09;98952.19;;;-7.42;55.26
15880;BME280;61999;51.514;14.614;2023-01-19T06:37:39;98959.06;;;-7.44;54.57
15880;BME280;61999;51.514;14.614;2023-01-19T06:40:09;98960.81;;;-7.46;54.24
15880;BME280;61999;51.514;14.614;2023-01-19T06:42:40;98965.16;;;-7.50;54.32
15880;BME280;61999;51.514;14.614;2023-01-19T06:45:09;98963.50;;;-7.51;54.80
15880;BME280;61999;51.514;14.614;2023-01-19T06:47:37;98974.63;;;-7.54;54.73
15880;BME280;61999;51.514;14.614;2023-01-19T06:50:06;98968.69;;;-7.56;54.80
15880;BME280;61999;51.514;14.614;2023-01-19T06:52:34;98971.25;;;-7.56;54.03
15880;BME280;61999;51.514;14.614;2023-01-19T06:55:09;98972.16;;;-7.58;54.64
15880;BME280;61999;51.514;14.614;2023-01-19T06:57:38;98979.00;;;-7.59;54.65
15880;BME280;61999;51.514;14.614;2023-01-19T07:00:08;98976.44;;;-7.59;54.25
15880;BME280;61999;51.514;14.614;2023-01-19T07:02:40;98976.44;;;-7.59;54.29
15880;BME280;61999;51.514;14.614;2023-01-19T07:05:10;98976.44;;;-7.59;54.22
15880;BME280;61999;51.514;14.614;2023-01-19T07:07:40;98979.09;;;-7.62;54.53
15880;BME280;61999;51.514;14.614;2023-01-19T07:10:11;98986.81;;;-7.65;54.42
15880;BME280;61999;51.514;14.614;2023-01-19T07:12:41;98992.00;;;-7.68;54.26
15880;BME280;61999;51.514;14.614;2023-01-19T07:15:13;98995.44;;;-7.69;54.38
15880;BME280;61999;51.514;14.614;2023-01-19T07:17:42;98997.13;;;-7.68;54.58
15880;BME280;61999;51.514;14.614;2023-01-19T07:20:12;99000.53;;;-7.69;54.34
15880;BME280;61999;51.514;14.614;2023-01-19T07:22:42;99009.06;;;-7.68;54.11
15880;BME280;61999;51.514;14.614;2023-01-19T07:25:13;99010.78;;;-7.69;54.55
15880;BME280;61999;51.514;14.614;2023-01-19T07:27:41;99010.78;;;-7.69;54.61
15880;BME280;61999;51.514;14.614;2023-01-19T07:30:12;99014.16;;;-7.67;54.32
15880;BME280;61999;51.514;14.614;2023-01-19T07:32:42;99019.28;;;-7.67;53.94
15880;BME280;61999;51.514;14.614;2023-01-19T07:35:10;99025.22;;;-7.66;54.10
15880;BME280;61999;51.514;14.614;2023-01-19T07:37:38;99026.13;;;-7.69;54.12
15880;BME280;61999;51.514;14.614;2023-01-19T07:40:08;99027.69;;;-7.62;54.60
15880;BME280;61999;51.514;14.614;2023-01-19T07:42:37;99027.56;;;-7.56;54.44
15880;BME280;61999;51.514;14.614;2023-01-19T07:45:07;99030.81;;;-7.49;54.76
15880;BME280;61999;51.514;14.614;2023-01-19T07:47:35;99032.41;;;-7.43;54.88
15880;BME280;61999;51.514;14.614;2023-01-19T07:50:05;99034.81;;;-7.37;55.70
15880;BME280;61999;51.514;14.614;2023-01-19T07:52:33;99030.28;;;-7.24;56.15
15880;BME280;61999;51.514;14.614;2023-01-19T07:55:01;99035.09;;;-7.11;56.56
15880;BME280;61999;51.514;14.614;2023-01-19T07:57:29;99038.16;;;-6.96;56.25
15880;BME280;61999;51.514;14.614;2023-01-19T07:59:59;99031.00;;;-6.82;56.77
15880;BME280;61999;51.514;14.614;2023-01-19T08:02:27;99029.13;;;-6.77;56.02
15880;BME280;61999;51.514;14.614;2023-01-19T08:04:56;99032.34;;;-6.69;55.95
15880;BME280;61999;51.514;14.614;2023-01-19T08:07:24;99028.38;;;-6.46;56.03
15880;BME280;61999;51.514;14.614;2023-01-19T08:09:52;99030.06;;;-6.45;55.58
15880;BME280;61999;51.514;14.614;2023-01-19T08:12:20;99032.69;;;-6.16;55.73
15880;BME280;61999;51.514;14.614;2023-01-19T08:14:48;99035.78;;;-6.04;55.05
15880;BME280;61999;51.514;14.614;2023-01-19T08:17:17;99025.44;;;-6.01;54.39
15880;BME280;61999;51.514;14.614;2023-01-19T08:19:46;99022.78;;;-5.68;55.11
15880;BME280;61999;51.514;14.614;2023-01-19T08:22:14;99024.41;;;-5.64;54.19
15880;BME280;61999;51.514;14.614;2023-01-19T08:24:42;99033.66;;;-5.31;54.40
15880;BME280;61999;51.514;14.614;2023-01-19T08:27:10;99030.00;;;-5.23;53.98
15880;BME280;61999;51.514;14.614;2023-01-19T08:29:38;99027.56;;;-5.00;52.97
15880;BME280;61999;51.514;14.614;2023-01-19T08:32:06;99033.59;;;-4.74;53.28
15880;BME280;61999;51.514;14.614;2023-01-19T08:34:36;99033.59;;;-6.18;50.69
15880;BME280;61999;51.514;14.614;2023-01-19T08:37:04;99030.13;;;-6.82;52.50
15880;BME280;61999;51.514;14.614;2023-01-19T08:39:32;99027.63;;;-6.19;51.77
15880;BME280;61999;51.514;14.614;2023-01-19T08:42:00;99033.28;;;-5.46;52.35
15880;BME280;61999;51.514;14.614;2023-01-19T08:44:28;99024.88;;;-4.70;52.11
15880;BME280;61999;51.514;14.614;2023-01-19T08:46:56;99030.28;;;-5.33;49.10
15880;BME280;61999;51.514;14.614;2023-01-19T08:49:24;99028.69;;;-4.55;50.38
15880;BME280;61999;51.514;14.614;2023-01-19T08:51:54;99032.00;;;-5.05;49.28
15880;BME280;61999;51.514;14.614;2023-01-19T08:54:22;99032.81;;;-5.59;50.01
15880;BME280;61999;51.514;14.614;2023-01-19T08:56:50;99038.09;;;-4.81;49.18
15880;BME280;61999;51.514;14.614;2023-01-19T08:59:18;99046.66;;;-4.04;50.53
15880;BME280;61999;51.514;14.614;2023-01-19T09:01:46;99045.13;;;-4.11;49.71
15880;BME280;61999;51.514;14.614;2023-01-19T09:04:15;99043.94;;;-3.54;49.76
15880;BME280;61999;51.514;14.614;2023-01-19T09:06:43;99051.19;;;-3.18;48.44
15880;BME280;61999;51.514;14.614;2023-01-19T09:09:13;99051.34;;;-3.01;48.33
15880;BME280;61999;51.514;14.614;2023-01-19T09:11:43;99054.84;;;-3.02;45.75
15880;BME280;61999;51.514;14.614;2023-01-19T09:14:11;99060.41;;;-3.34;46.25
15880;BME280;61999;51.514;14.614;2023-01-19T09:16:39;99062.78;;;-4.25;48.39
15880;BME280;61999;51.514;14.614;2023-01-19T09:19:08;99058.88;;;-3.40;46.43
15880;BME280;61999;51.514;14.614;2023-01-19T09:21:35;99059.38;;;-3.08;46.27
15880;BME280;61999;51.514;14.614;2023-01-19T09:24:04;99062.25;;;-2.31;47.53
15880;BME280;61999;51.514;14.614;2023-01-19T09:26:34;99067.44;;;-2.31;45.42
15880;BME280;61999;51.514;14.614;2023-01-19T09:29:02;99067.00;;;-1.62;47.49
15880;BME280;61999;51.514;14.614;2023-01-19T09:31:30;99067.19;;;-1.27;46.68
15880;BME280;61999;51.514;14.614;2023-01-19T09:33:58;99068.13;;;-0.92;46.77
15880;BME280;61999;51.514;14.614;2023-01-19T09:36:26;99067.00;;;-1.05;45.69
15880;BME280;61999;51.514;14.614;2023-01-19T09:38:54;99067.44;;;-1.14;41.50
15880;BME280;61999;51.514;14.614;2023-01-19T09:41:23;99073.91;;;-0.87;44.91
15880;BME280;61999;51.514;14.614;2023-01-19T09:43:57;99077.63;;;-0.92;43.87
15880;BME280;61999;51.514;14.614;2023-01-19T09:46:32;99075.84;;;-0.21;43.32
15880;BME280;61999;51.514;14.614;2023-01-19T09:49:05;99076.47;;;0.18;43.82
15880;BME280;61999;51.514;14.614;2023-01-19T09:51:40;99080.03;;;0.32;42.04
15880;BME280;61999;51.514;14.614;2023-01-19T09:54:13;99074.84;;;0.32;39.54
15880;BME280;61999;51.514;14.614;2023-01-19T09:56:44;99077.91;;;0.56;42.27
15880;BME280;61999;51.514;14.614;2023-01-19T09:59:22;99066.69;;;-0.80;40.35
15880;BME280;61999;51.514;14.614;2023-01-19T10:02:25;99066.19;;;0.81;41.70
15880;BME280;61999;51.514;14.614;2023-01-19T10:04:59;99060.66;;;0.55;41.52
15880;BME280;61999;51.514;14.614;2023-01-19T10:07:45;99069.16;;;1.21;39.42
15880;BME280;61999;51.514;14.614;2023-01-19T10:10:21;99063.06;;;1.06;40.46
15880;BME280;61999;51.514;14.614;2023-01-19T10:13:18;99064.69;;;0.77;40.89
15880;BME280;61999;51.514;14.614;2023-01-19T10:16:08;99059.69;;;1.50;40.61
15880;BME280;61999;51.514;14.614;2023-01-19T10:18:43;99069.13;;;1.97;40.73
15880;BME280;61999;51.514;14.614;2023-01-19T10:21:20;99064.38;;;2.04;38.91
15880;BME280;61999;51.514;14.614;2023-01-19T10:23:54;99065.31;;;2.03;37.24
15880;BME280;61999;51.514;14.614;2023-01-19T10:26:31;99061.50;;;2.78;40.72
15880;BME280;61999;51.514;14.614;2023-01-19T10:29:04;99059.28;;;2.87;38.35
15880;BME280;61999;51.514;14.614;2023-01-19T10:31:38;99060.16;;;3.00;37.26
15880;BME280;61999;51.514;14.614;2023-01-19T10:34:09;99060.34;;;3.51;38.89
15880;BME280;61999;51.514;14.614;2023-01-19T10:36:48;99059.50;;;3.50;38.04
15880;BME280;61999;51.514;14.614;2023-01-19T10:39:18;99063.31;;;3.97;35.91
15880;BME280;61999;51.514;14.614;2023-01-19T10:41:50;99065.34;;;3.54;37.65
15880;BME280;61999;51.514;14.614;2023-01-19T10:44:24;99055.16;;;4.15;34.84
15880;BME280;61999;51.514;14.614;2023-01-19T10:46:57;99057.69;;;2.28;35.83
15880;BME280;61999;51.514;14.614;2023-01-19T10:49:33;99047.25;;;2.57;35.13
15880;BME280;61999;51.514;14.614;2023-01-19T10:52:05;99048.16;;;3.24;34.58
15880;BME280;61999;51.514;14.614;2023-01-19T10:54:36;99035.13;;;4.15;36.52
15880;BME280;61999;51.514;14.614;2023-01-19T10:57:08;99045.56;;;3.64;35.63
15880;BME280;61999;51.514;14.614;2023-01-19T10:59:47;99039.66;;;3.35;36.55
15880;BME280;61999;51.514;14.614;2023-01-19T11:02:20;99042.84;;;3.79;32.99
15880;BME280;61999;51.514;14.614;2023-01-19T11:04:54;99047.97;;;3.93;36.06
15880;BME280;61999;51.514;14.614;2023-01-19T11:07:27;99048.03;;;4.92;34.20
15880;BME280;61999;51.514;14.614;2023-01-19T11:10:20;99046.91;;;5.31;33.94
15880;BME280;61999;51.514;14.614;2023-01-19T11:13:01;99049.78;;;5.16;32.02
15880;BME280;61999;51.514;14.614;2023-01-19T11:15:33;99054.47;;;5.94;33.78
15880;BME280;61999;51.514;14.614;2023-01-19T11:18:05;99048.00;;;5.40;31.53
15880;BME280;61999;51.514;14.614;2023-01-19T11:20:47;99048.03;;;6.54;34.15
15880;BME280;61999;51.514;14.614;2023-01-19T11:23:26;99053.38;;;6.19;31.67
15880;BME280;61999;51.514;14.614;2023-01-19T11:25:58;99056.72;;;5.98;31.04
15880;BME280;61999;51.514;14.614;2023-01-19T11:28:32;99047.19;;;4.55;32.10
15880;BME280;61999;51.514;14.614;2023-01-19T11:31:15;99055.19;;;5.61;32.08
15880;BME280;61999;51.514;14.614;2023-01-19T11:33:51;99053.16;;;6.22;30.92
15880;BME280;61999;51.514;14.614;2023-01-19T11:36:22;99054.78;;;5.78;32.52
15880;BME280;61999;51.514;14.614;2023-01-19T11:38:53;99050.75;;;5.96;32.82
15880;BME280;61999;51.514;14.614;2023-01-19T11:41:25;99061.00;;;5.88;30.23
15880;BME280;61999;51.514;14.614;2023-01-19T11:43:57;99053.00;;;5.79;32.34
15880;BME280;61999;51.514;14.614;2023-01-19T11:46:32;99055.50;;;5.80;30.55
15880;BME280;61999;51.514;14.614;2023-01-19T11:49:06;99054.13;;;6.32;31.63
15880;BME280;61999;51.514;14.614;2023-01-19T11:51:55;99048.19;;;6.96;32.41
15880;BME280;61999;51.514;14.614;2023-01-19T11:54:35;99058.09;;;3.72;33.25
15880;BME280;61999;51.514;14.614;2023-01-19T11:57:12;99055.75;;;4.44;33.20
15880;BME280;61999;51.514;14.614;2023-01-19T11:59:42;99049.09;;;4.40;33.17
15880;BME280;61999;51.514;14.614;2023-01-19T12:02:22;99042.22;;;5.59;33.88
15880;BME280;61999;51.514;14.614;2023-01-19T12:04:59;99041.97;;;5.51;31.31
15880;BME280;61999;51.514;14.614;2023-01-19T12:07:34;99038.53;;;5.62;30.20
15880;BME280;61999;51.514;14.614;2023-01-19T12:10:24;99039.13;;;6.12;31.29
15880;BME280;61999;51.514;14.614;2023-01-19T12:12:52;99035.59;;;7.22;30.36
15880;BME280;61999;51.514;14.614;2023-01-19T12:15:30;99025.47;;;7.50;30.64
15880;BME280;61999;51.514;14.614;2023-01-19T12:18:01;99029.88;;;6.74;30.02
15880;BME280;61999;51.514;14.614;2023-01-19T12:20:36;99031.44;;;6.65;28.45
15880;BME280;61999;51.514;14.614;2023-01-19T12:23:21;99035.88;;;4.67;31.59
15880;BME280;61999;51.514;14.614;2023-01-19T12:26:13;99047.44;;;5.24;31.86
15880;BME280;61999;51.514;14.614;2023-01-19T12:28:51;99031.50;;;5.16;32.41
15880;BME280;61999;51.514;14.614;2023-01-19T12:31:21;99031.03;;;6.37;32.34
15880;BME280;61999;51.514;14.614;2023-01-19T12:33:50;99034.28;;;7.91;31.52
15880;BME280;61999;51.514;14.614;2023-01-19T12:36:36;99020.66;;;7.76;29.96
15880;BME280;61999;51.514;14.614;2023-01-19T12:39:16;99024.72;;;9.01;29.87
15880;BME280;61999;51.514;14.614;2023-01-19T12:41:45;99018.31;;;8.75;29.21
15880;BME280;61999;51.514;14.614;2023-01-19T12:44:21;99023.47;;;9.25;29.70
15880;BME280;61999;51.514;14.614;2023-01-19T12:46:54;99015.50;;;8.66;29.42
15880;BME280;61999;51.514;14.614;2023-01-19T12:49:34;99020.28;;;7.39;28.68
15880;BME280;61999;51.514;14.614;2023-01-19T12:52:31;99009.31;;;6.69;30.02
15880;BME280;61999;51.514;14.614;2023-01-19T12:55:21;99018.00;;;7.13;30.11
15880;BME280;61999;51.514;14.614;2023-01-19T12:57:57;99017.16;;;8.67;29.04
15880;BME280;61999;51.514;14.614;2023-01-19T13:00:37;99013.22;;;8.83;29.46
15880;BME280;61999;51.514;14.614;2023-01-19T13:03:58;99017.47;;;9.62;27.33
15880;BME280;61999;51.514;14.614;2023-01-19T13:07:05;99018.25;;;8.55;27.54
15880;BME280;61999;51.514;14.614;2023-01-19T13:09:39;99018.09;;;5.20;31.97
15880;BME280;61999;51.514;14.614;2023-01-19T13:12:23;99015.06;;;4.54;32.97
15880;BME280;61999;51.514;14.614;2023-01-19T13:15:26;99017.34;;;5.07;32.30
15880;BME280;61999;51.514;14.614;2023-01-19T13:17:54;99007.78;;;4.21;32.91
15880;BME280;61999;51.514;14.614;2023-01-19T13:20:30;99007.94;;;4.43;34.14